createdAt,value
2022-07-31T00:00:31.174Z,16.53
2022-07-31T00:02:03.516Z,16.57
2022-07-31T00:03:35.764Z,16.60
2022-07-31T00:05:08.469Z,16.64
2022-07-31T00:06:41.435Z,16.65
2022-07-31T00:08:13.596Z,16.68
2022-07-31T00:09:53.352Z,16.68
2022-07-31T00:11:27.173Z,16.67
2022-07-31T00:12:59.417Z,16.67
2022-07-31T00:14:31.572Z,16.65
2022-07-31T00:16:04.119Z,16.65
2022-07-31T00:17:38.516Z,16.66
2022-07-31T00:19:10.676Z,16.66
2022-07-31T00:20:44.412Z,16.64
2022-07-31T00:22:16.580Z,16.59
2022-07-31T00:23:49.050Z,16.55
2022-07-31T00:25:21.293Z,16.52
2022-07-31T00:26:53.677Z,16.48
2022-07-31T00:28:26.378Z,16.47
2022-07-31T00:29:58.888Z,16.46
2022-07-31T00:31:30.978Z,16.42
2022-07-31T00:33:03.158Z,16.40
2022-07-31T00:34:35.285Z,16.39
2022-07-31T00:36:10.693Z,16.37
2022-07-31T00:37:44.369Z,16.40
2022-07-31T00:39:16.647Z,16.41
2022-07-31T00:40:48.968Z,16.44
2022-07-31T00:42:22.347Z,16.44
2022-07-31T00:43:54.922Z,16.43
2022-07-31T00:45:28.980Z,16.42
2022-07-31T00:47:04.793Z,16.43
2022-07-31T00:48:37.483Z,16.42
2022-07-31T00:50:12.331Z,16.41
2022-07-31T00:51:44.519Z,16.40
2022-07-31T00:53:16.682Z,16.39
2022-07-31T00:54:49.625Z,16.37
2022-07-31T00:56:21.814Z,16.33
2022-07-31T00:57:54.006Z,16.35
2022-07-31T00:59:27.090Z,16.34
2022-07-31T01:00:59.956Z,16.33
2022-07-31T01:02:32.918Z,16.32
2022-07-31T01:04:05.511Z,16.33
2022-07-31T01:05:38.546Z,16.28
2022-07-31T01:07:11.168Z,16.29
2022-07-31T01:08:43.353Z,16.29
2022-07-31T01:10:19.516Z,16.31
2022-07-31T01:11:54.586Z,16.32
2022-07-31T01:13:31.664Z,16.35
2022-07-31T01:15:07.299Z,16.32
2022-07-31T01:16:47.545Z,16.33
2022-07-31T01:18:20.750Z,16.32
2022-07-31T01:19:53.560Z,16.35
2022-07-31T01:21:35.451Z,16.35
2022-07-31T01:23:13.299Z,16.37
2022-07-31T01:25:08.920Z,16.34
2022-07-31T01:26:52.472Z,16.37
2022-07-31T01:28:32.376Z,16.41
2022-07-31T01:30:04.896Z,16.39
2022-07-31T01:31:44.928Z,16.38
2022-07-31T01:33:22.853Z,16.38
2022-07-31T01:35:00.820Z,16.37
2022-07-31T01:36:35.403Z,16.37
2022-07-31T01:38:13.223Z,16.37
2022-07-31T01:39:50.795Z,16.38
2022-07-31T01:41:29.243Z,16.40
2022-07-31T01:43:19.613Z,16.40
2022-07-31T01:44:54.775Z,16.44
2022-07-31T01:46:29.294Z,16.43
2022-07-31T01:48:01.990Z,16.42
2022-07-31T01:49:40.492Z,16.42
2022-07-31T01:51:13.570Z,16.38
2022-07-31T01:52:46.076Z,16.34
2022-07-31T01:54:18.967Z,16.33
2022-07-31T01:55:56.521Z,16.31
2022-07-31T01:57:38.631Z,16.25
2022-07-31T01:59:20.564Z,16.24
2022-07-31T02:01:15.672Z,16.20
2022-07-31T02:02:49.588Z,16.22
2022-07-31T02:04:26.959Z,16.24
2022-07-31T02:06:03.402Z,16.26
2022-07-31T02:07:36.864Z,16.31
2022-07-31T02:09:09.476Z,16.36
2022-07-31T02:10:42.670Z,16.44
2022-07-31T02:12:15.225Z,16.48
2022-07-31T02:14:09.708Z,16.53
2022-07-31T02:15:42.723Z,16.59
2022-07-31T02:17:15.366Z,16.64
2022-07-31T02:19:24.974Z,16.71
2022-07-31T02:20:58.500Z,16.76
2022-07-31T02:22:33.525Z,16.80
2022-07-31T02:24:05.890Z,16.82
2022-07-31T02:25:40.212Z,16.81
2022-07-31T02:27:57.009Z,16.77
2022-07-31T02:29:19.863Z,16.70
2022-07-31T02:30:54.181Z,16.65
2022-07-31T02:32:27.767Z,16.60
2022-07-31T02:34:02.538Z,16.57
2022-07-31T02:35:36.136Z,16.56
2022-07-31T02:37:09.212Z,16.56
2022-07-31T02:38:43.238Z,16.58
2022-07-31T02:40:15.954Z,16.61
2022-07-31T02:41:48.769Z,16.62
2022-07-31T02:43:21.416Z,16.65
2022-07-31T02:44:53.615Z,16.66
2022-07-31T02:46:26.437Z,16.69
2022-07-31T02:47:58.863Z,16.73
2022-07-31T02:49:33.905Z,16.76
2022-07-31T02:51:06.965Z,16.79
2022-07-31T02:52:39.731Z,16.80
2022-07-31T02:54:12.110Z,16.84
2022-07-31T02:55:45.568Z,16.84
2022-07-31T02:57:17.792Z,16.87
2022-07-31T02:58:50.234Z,16.91
2022-07-31T03:00:30.943Z,16.93
2022-07-31T03:02:04.901Z,16.94
2022-07-31T03:03:42.292Z,16.96
2022-07-31T03:05:16.515Z,16.99
2022-07-31T03:06:49.211Z,17.00
2022-07-31T03:08:22.150Z,17.01
2022-07-31T03:09:58.878Z,17.03
2022-07-31T03:11:47.688Z,17.04
2022-07-31T03:13:22.748Z,17.05
2022-07-31T03:14:55.575Z,17.04
2022-07-31T03:16:29.934Z,17.05
2022-07-31T03:18:08.335Z,17.06
2022-07-31T03:19:47.557Z,17.08
2022-07-31T03:21:20.092Z,17.08
2022-07-31T03:22:52.579Z,17.07
2022-07-31T03:24:25.897Z,17.08
2022-07-31T03:25:58.783Z,17.10
2022-07-31T03:27:30.890Z,17.11
2022-07-31T03:29:03.394Z,17.12
2022-07-31T03:30:35.635Z,17.12
2022-07-31T03:32:08.209Z,17.08
2022-07-31T03:33:40.738Z,17.08
2022-07-31T03:35:13.071Z,17.08
2022-07-31T03:36:46.591Z,17.07
2022-07-31T03:38:38.224Z,17.07
2022-07-31T03:40:12.777Z,17.07
2022-07-31T03:41:46.487Z,17.08
2022-07-31T03:43:19.858Z,17.09
2022-07-31T03:44:53.655Z,17.10
2022-07-31T03:46:25.805Z,17.12
2022-07-31T03:47:58.987Z,17.13
2022-07-31T03:49:32.853Z,17.13
2022-07-31T03:51:06.525Z,17.15
2022-07-31T03:52:38.829Z,17.19
2022-07-31T03:54:11.716Z,17.18
2022-07-31T03:56:06.534Z,17.19
2022-07-31T03:57:40.084Z,17.18
2022-07-31T03:59:14.097Z,17.18
2022-07-31T04:00:47.969Z,17.17
2022-07-31T04:02:21.218Z,17.18
2022-07-31T04:03:59.357Z,17.19
2022-07-31T04:05:54.869Z,17.20
2022-07-31T04:07:29.741Z,17.23
2022-07-31T04:09:09.204Z,17.22
2022-07-31T04:10:52.706Z,17.22
2022-07-31T04:12:28.594Z,17.23
2022-07-31T04:14:01.196Z,17.23
2022-07-31T04:15:33.659Z,17.25
2022-07-31T04:17:05.971Z,17.28
2022-07-31T04:18:41.322Z,17.31
2022-07-31T04:20:13.928Z,17.32
2022-07-31T04:21:46.335Z,17.32
2022-07-31T04:23:18.529Z,17.34
2022-07-31T04:25:18.057Z,17.39
2022-07-31T04:26:56.872Z,17.41
2022-07-31T04:28:34.674Z,17.44
2022-07-31T04:30:08.728Z,17.46
2022-07-31T04:31:40.934Z,17.50
2022-07-31T04:33:18.403Z,17.54
2022-07-31T04:34:50.881Z,17.57
2022-07-31T04:36:29.652Z,17.62
2022-07-31T04:38:04.995Z,17.66
2022-07-31T04:39:41.971Z,17.68
2022-07-31T04:41:17.486Z,17.70
2022-07-31T04:42:50.978Z,17.74
2022-07-31T04:44:23.357Z,17.77
2022-07-31T04:46:01.095Z,17.79
2022-07-31T04:47:33.269Z,17.85
2022-07-31T04:49:05.537Z,17.86
2022-07-31T04:50:37.754Z,17.91
2022-07-31T04:52:10.356Z,17.95
2022-07-31T04:53:43.007Z,17.98
2022-07-31T04:55:15.180Z,18.02
2022-07-31T04:56:48.659Z,18.04
2022-07-31T04:58:21.560Z,18.09
2022-07-31T04:59:59.687Z,18.15
2022-07-31T05:01:34.024Z,18.18
2022-07-31T05:03:06.227Z,18.28
2022-07-31T05:04:41.669Z,18.38
2022-07-31T05:06:13.873Z,18.50
2022-07-31T05:07:46.742Z,18.66
2022-07-31T05:09:33.349Z,18.82
2022-07-31T05:11:25.063Z,18.97
2022-07-31T05:12:57.338Z,19.13
2022-07-31T05:14:29.622Z,19.29
2022-07-31T05:16:01.861Z,19.39
2022-07-31T05:17:34.400Z,19.47
2022-07-31T05:19:29.959Z,19.49
2022-07-31T05:21:21.238Z,19.58
2022-07-31T05:23:01.658Z,19.63
2022-07-31T05:24:45.853Z,19.69
2022-07-31T05:26:19.105Z,19.81
2022-07-31T05:27:51.339Z,19.84
2022-07-31T05:29:23.880Z,19.88
2022-07-31T05:30:56.166Z,19.92
2022-07-31T05:32:28.425Z,19.93
2022-07-31T05:34:00.669Z,19.93
2022-07-31T05:35:33.150Z,19.96
2022-07-31T05:37:06.400Z,20.01
2022-07-31T05:38:41.662Z,20.02
2022-07-31T05:40:29.162Z,19.99
2022-07-31T05:42:20.358Z,20.00
2022-07-31T05:44:11.083Z,20.01
2022-07-31T05:45:49.590Z,20.05
2022-07-31T05:47:22.114Z,20.16
2022-07-31T05:48:54.968Z,20.27
2022-07-31T05:50:27.768Z,20.33
2022-07-31T05:51:59.927Z,20.40
2022-07-31T05:53:32.471Z,20.52
2022-07-31T05:55:23.516Z,20.49
2022-07-31T05:57:26.430Z,20.56
2022-07-31T05:59:10.051Z,20.59
2022-07-31T06:00:45.150Z,20.62
2022-07-31T06:02:17.292Z,20.64
2022-07-31T06:04:15.026Z,20.72
2022-07-31T06:05:51.073Z,20.72
2022-07-31T06:07:23.516Z,20.74
2022-07-31T06:08:57.570Z,20.73
2022-07-31T06:10:36.056Z,20.83
2022-07-31T06:12:08.420Z,20.94
2022-07-31T06:13:43.381Z,21.08
2022-07-31T06:15:36.491Z,21.21
2022-07-31T06:17:09.260Z,21.32
2022-07-31T06:18:43.275Z,21.42
2022-07-31T06:20:15.619Z,21.55
2022-07-31T06:21:48.396Z,21.71
2022-07-31T06:23:27.916Z,21.76
2022-07-31T06:25:21.077Z,23.04
2022-07-31T06:26:59.848Z,24.51
2022-07-31T06:28:47.995Z,25.96
2022-07-31T06:30:22.241Z,27.37
2022-07-31T06:31:55.706Z,28.09
2022-07-31T06:33:37.070Z,28.52
2022-07-31T06:35:10.725Z,28.51
2022-07-31T06:37:03.240Z,28.58
2022-07-31T06:38:35.459Z,28.90
2022-07-31T06:40:26.874Z,29.35
2022-07-31T06:42:28.915Z,29.22
2022-07-31T06:44:10.729Z,29.24
2022-07-31T06:46:01.808Z,29.08
2022-07-31T06:48:13.215Z,28.41
2022-07-31T06:49:51.579Z,28.04
2022-07-31T06:51:32.149Z,27.62
2022-07-31T06:53:04.555Z,27.12
2022-07-31T06:54:38.491Z,27.05
2022-07-31T06:56:13.242Z,27.31
2022-07-31T06:57:45.431Z,27.75
2022-07-31T06:59:39.154Z,27.89
2022-07-31T07:01:10.925Z,27.75
2022-07-31T07:02:43.590Z,28.14
2022-07-31T07:04:15.996Z,28.39
2022-07-31T07:05:48.366Z,28.36
2022-07-31T07:07:21.225Z,28.82
2022-07-31T07:08:55.149Z,29.34
2022-07-31T07:10:28.196Z,29.82
2022-07-31T07:12:03.425Z,30.13
2022-07-31T07:13:46.270Z,29.76
2022-07-31T07:15:21.898Z,28.95
2022-07-31T07:16:54.364Z,28.42
2022-07-31T07:18:26.797Z,28.01
2022-07-31T07:20:05.562Z,27.38
2022-07-31T07:21:37.895Z,26.88
2022-07-31T07:23:10.194Z,26.28
2022-07-31T07:24:51.695Z,25.86
2022-07-31T07:26:28.075Z,25.80
2022-07-31T07:28:00.279Z,26.26
2022-07-31T07:29:32.863Z,26.54
2022-07-31T07:31:05.402Z,26.72
2022-07-31T07:32:38.424Z,26.59
2022-07-31T07:34:10.723Z,26.39
2022-07-31T07:35:44.154Z,26.07
2022-07-31T07:37:24.207Z,25.64
2022-07-31T07:38:58.811Z,25.26
2022-07-31T07:40:31.346Z,24.88
2022-07-31T07:42:04.276Z,24.47
2022-07-31T07:43:36.618Z,23.94
2022-07-31T07:45:13.833Z,23.46
2022-07-31T07:46:48.706Z,23.13
2022-07-31T07:48:23.134Z,22.93
2022-07-31T07:50:15.883Z,22.55
2022-07-31T07:52:08.376Z,22.30
2022-07-31T07:53:43.373Z,22.04
2022-07-31T07:55:37.566Z,21.83
2022-07-31T07:57:39.534Z,21.52
2022-07-31T07:59:37.617Z,21.31
2022-07-31T08:01:48.854Z,21.25
2022-07-31T08:03:48.968Z,21.20
2022-07-31T08:05:18.397Z,21.04
2022-07-31T08:06:50.887Z,20.99
2022-07-31T08:08:24.381Z,20.97
2022-07-31T08:10:19.334Z,20.89
2022-07-31T08:11:56.715Z,20.89
2022-07-31T08:13:50.919Z,20.93
2022-07-31T08:15:42.267Z,20.81
2022-07-31T08:17:18.807Z,20.77
2022-07-31T08:18:51.735Z,20.75
2022-07-31T08:20:23.895Z,20.73
2022-07-31T08:21:57.534Z,20.78
2022-07-31T08:23:30.130Z,20.86
2022-07-31T08:25:05.400Z,20.88
2022-07-31T08:26:58.062Z,20.85
2022-07-31T08:28:31.519Z,20.89
2022-07-31T08:30:03.993Z,20.93
2022-07-31T08:31:37.330Z,20.98
2022-07-31T08:33:25.598Z,21.05
2022-07-31T08:35:00.357Z,21.15
2022-07-31T08:36:32.655Z,21.12
2022-07-31T08:38:05.097Z,21.12
2022-07-31T08:39:46.693Z,21.14
2022-07-31T08:41:19.217Z,21.20
2022-07-31T08:42:51.514Z,21.28
2022-07-31T08:44:30.896Z,21.40
2022-07-31T08:46:05.143Z,21.55
2022-07-31T08:47:42.360Z,21.77
2022-07-31T08:49:19.420Z,21.99
2022-07-31T08:50:53.966Z,22.20
2022-07-31T08:52:45.791Z,22.34
2022-07-31T08:54:26.234Z,22.46
2022-07-31T08:55:58.538Z,22.56
2022-07-31T08:57:35.753Z,22.68
2022-07-31T08:59:11.728Z,22.81
2022-07-31T09:00:44.308Z,22.86
2022-07-31T09:02:16.914Z,22.96
2022-07-31T09:04:07.563Z,22.99
2022-07-31T09:05:41.829Z,23.03
2022-07-31T09:07:15.857Z,23.12
2022-07-31T09:08:48.500Z,23.19
2022-07-31T09:10:28.683Z,23.30
2022-07-31T09:12:02.114Z,23.37
2022-07-31T09:14:07.668Z,23.48
2022-07-31T09:15:46.633Z,23.58
2022-07-31T09:17:30.512Z,23.71
2022-07-31T09:19:52.618Z,23.79
2022-07-31T09:20:57.927Z,23.75
2022-07-31T09:22:31.768Z,23.61
2022-07-31T09:24:08.087Z,23.53
2022-07-31T09:25:41.907Z,23.58
2022-07-31T09:27:17.459Z,23.59
2022-07-31T09:28:51.916Z,23.64
2022-07-31T09:30:24.145Z,23.75
2022-07-31T09:32:31.597Z,23.90
2022-07-31T09:34:28.749Z,24.12
2022-07-31T09:36:16.260Z,24.28
2022-07-31T09:37:53.784Z,24.39
2022-07-31T09:40:01.866Z,24.38
2022-07-31T09:42:01.226Z,24.41
2022-07-31T09:44:09.633Z,24.36
2022-07-31T09:45:48.490Z,24.41
2022-07-31T09:47:22.098Z,24.48
2022-07-31T09:49:00.099Z,24.54
2022-07-31T09:50:34.849Z,24.53
2022-07-31T09:52:17.918Z,24.60
2022-07-31T09:53:53.458Z,24.69
2022-07-31T09:55:49.367Z,24.67
2022-07-31T09:57:22.156Z,24.69
2022-07-31T09:59:00.614Z,24.75
2022-07-31T10:00:33.803Z,24.79
2022-07-31T10:02:07.866Z,24.91
2022-07-31T10:03:41.097Z,24.94
2022-07-31T10:05:15.193Z,25.07
2022-07-31T10:06:48.923Z,25.13
2022-07-31T10:08:23.187Z,25.24
2022-07-31T10:10:16.955Z,25.39
2022-07-31T10:12:19.706Z,25.64
2022-07-31T10:13:54.103Z,25.87
2022-07-31T10:15:26.722Z,26.05
2022-07-31T10:17:25.401Z,26.16
2022-07-31T10:19:18.911Z,25.96
2022-07-31T10:21:14.813Z,25.85
2022-07-31T10:23:10.203Z,25.77
2022-07-31T10:24:45.532Z,25.71
2022-07-31T10:26:20.027Z,25.67
2022-07-31T10:27:54.195Z,25.59
2022-07-31T10:29:27.357Z,25.61
2022-07-31T10:31:07.642Z,25.64
2022-07-31T10:32:40.415Z,25.78
2022-07-31T10:34:32.697Z,25.84
2022-07-31T10:36:21.365Z,25.87
2022-07-31T10:38:17.718Z,25.94
2022-07-31T10:39:52.883Z,25.93
2022-07-31T10:41:44.326Z,25.83
2022-07-31T10:43:24.789Z,25.90
2022-07-31T10:45:17.506Z,25.95
2022-07-31T10:47:14.246Z,25.91
2022-07-31T10:49:08.212Z,25.91
2022-07-31T10:51:04.125Z,25.92
2022-07-31T10:53:12.886Z,25.74
2022-07-31T10:55:22.583Z,25.82
2022-07-31T10:57:23.335Z,25.83
2022-07-31T10:59:15.467Z,25.92
2022-07-31T11:01:12.177Z,25.96
2022-07-31T11:03:20.177Z,25.85
2022-07-31T11:05:14.723Z,25.84
2022-07-31T11:07:23.159Z,25.91
2022-07-31T11:09:23.366Z,25.86
2022-07-31T11:11:14.735Z,25.87
2022-07-31T11:13:08.945Z,25.97
2022-07-31T11:14:58.339Z,26.06
2022-07-31T11:16:51.597Z,26.10
2022-07-31T11:19:05.746Z,25.99
2022-07-31T11:20:38.007Z,25.96
2022-07-31T11:22:31.555Z,25.93
2022-07-31T11:24:15.406Z,25.77
2022-07-31T11:25:47.732Z,25.75
2022-07-31T11:27:29.160Z,25.84
2022-07-31T11:30:01.280Z,25.85
2022-07-31T11:30:53.776Z,25.86
2022-07-31T11:32:26.606Z,25.94
2022-07-31T11:34:03.515Z,26.03
2022-07-31T11:35:37.002Z,26.08
2022-07-31T11:37:14.111Z,26.12
2022-07-31T11:38:49.989Z,26.16
2022-07-31T11:40:26.500Z,26.18
2022-07-31T11:42:03.042Z,26.16
2022-07-31T11:43:37.649Z,26.22
2022-07-31T11:45:12.495Z,26.31
2022-07-31T11:46:44.827Z,26.36
2022-07-31T11:48:19.231Z,26.46
2022-07-31T11:50:00.353Z,26.57
2022-07-31T11:51:32.753Z,26.69
2022-07-31T11:53:07.214Z,26.75
2022-07-31T11:54:39.884Z,26.71
2022-07-31T11:56:18.833Z,26.58
2022-07-31T11:57:52.929Z,26.53
2022-07-31T11:59:45.784Z,26.43
2022-07-31T12:01:19.041Z,26.37
2022-07-31T12:02:51.467Z,26.40
2022-07-31T12:04:24.012Z,26.36
2022-07-31T12:05:56.529Z,26.31
2022-07-31T12:07:29.594Z,26.24
2022-07-31T12:09:01.787Z,26.22
2022-07-31T12:10:34.409Z,26.13
2022-07-31T12:12:06.969Z,26.14
2022-07-31T12:13:39.579Z,26.18
2022-07-31T12:15:15.943Z,26.24
2022-07-31T12:16:48.224Z,26.26
2022-07-31T12:18:20.757Z,26.29
2022-07-31T12:19:57.787Z,26.40
2022-07-31T12:21:31.298Z,26.43
2022-07-31T12:23:05.650Z,26.38
2022-07-31T12:24:39.354Z,26.36
2022-07-31T12:26:13.646Z,26.37
2022-07-31T12:27:52.524Z,26.47
2022-07-31T12:29:32.007Z,26.54
2022-07-31T12:31:04.701Z,26.59
2022-07-31T12:32:37.174Z,26.65
2022-07-31T12:34:09.359Z,26.74
2022-07-31T12:35:54.992Z,26.80
2022-07-31T12:37:29.330Z,26.89
2022-07-31T12:39:03.219Z,26.97
2022-07-31T12:40:35.487Z,27.03
2022-07-31T12:42:08.034Z,26.98
2022-07-31T12:43:43.055Z,26.97
2022-07-31T12:45:38.375Z,26.95
2022-07-31T12:47:19.621Z,26.91
2022-07-31T12:49:05.468Z,26.85
2022-07-31T12:50:38.042Z,26.73
2022-07-31T12:52:10.204Z,26.71
2022-07-31T12:53:42.369Z,26.67
2022-07-31T12:55:17.243Z,26.59
2022-07-31T12:56:53.494Z,26.59
2022-07-31T12:58:25.864Z,26.59
2022-07-31T12:59:57.981Z,26.63
2022-07-31T13:01:30.550Z,26.75
2022-07-31T13:03:03.160Z,26.88
2022-07-31T13:04:35.456Z,27.04
2022-07-31T13:06:09.651Z,27.13
2022-07-31T13:07:41.928Z,27.11
2022-07-31T13:09:14.470Z,27.03
2022-07-31T13:10:46.910Z,26.98
2022-07-31T13:12:19.152Z,26.98
2022-07-31T13:13:51.464Z,27.04
2022-07-31T13:15:30.049Z,27.09
2022-07-31T13:17:02.772Z,27.14
2022-07-31T13:18:35.843Z,27.23
2022-07-31T13:20:08.325Z,27.38
2022-07-31T13:21:49.195Z,27.53
2022-07-31T13:23:22.440Z,27.79
2022-07-31T13:24:54.636Z,27.76
2022-07-31T13:26:27.546Z,27.76
2022-07-31T13:28:00.441Z,27.76
2022-07-31T13:29:32.663Z,27.75
2022-07-31T13:31:04.887Z,27.69
2022-07-31T13:32:37.143Z,27.65
2022-07-31T13:34:09.618Z,27.68
2022-07-31T13:35:41.766Z,27.55
2022-07-31T13:37:14.064Z,27.47
2022-07-31T13:38:46.274Z,27.45
2022-07-31T13:40:19.790Z,27.40
2022-07-31T13:41:52.006Z,27.31
2022-07-31T13:43:24.132Z,27.25
2022-07-31T13:44:59.582Z,27.17
2022-07-31T13:46:32.399Z,27.10
2022-07-31T13:48:08.948Z,26.89
2022-07-31T13:49:41.991Z,26.87
2022-07-31T13:51:14.549Z,26.92
2022-07-31T13:52:46.959Z,26.80
2022-07-31T13:54:21.223Z,26.73
2022-07-31T13:55:56.756Z,26.70
2022-07-31T13:57:28.919Z,26.63
2022-07-31T13:59:01.745Z,26.68
2022-07-31T14:00:34.100Z,26.82
2022-07-31T14:02:06.302Z,26.81
2022-07-31T14:03:38.875Z,26.92
2022-07-31T14:05:11.290Z,27.01
2022-07-31T14:06:48.062Z,27.16
2022-07-31T14:08:33.546Z,27.30
2022-07-31T14:10:18.498Z,27.49
2022-07-31T14:11:52.537Z,27.58
2022-07-31T14:13:25.300Z,27.66
2022-07-31T14:14:57.889Z,27.66
2022-07-31T14:16:30.471Z,27.70
2022-07-31T14:18:06.563Z,27.63
2022-07-31T14:19:44.122Z,27.58
2022-07-31T14:21:16.748Z,27.54
2022-07-31T14:22:49.264Z,27.55
2022-07-31T14:24:21.417Z,27.53
2022-07-31T14:25:53.674Z,27.46
2022-07-31T14:27:25.916Z,27.35
2022-07-31T14:28:58.410Z,27.21
2022-07-31T14:30:31.932Z,27.22
2022-07-31T14:32:04.735Z,27.26
2022-07-31T14:33:37.149Z,27.23
2022-07-31T14:35:11.674Z,27.27
2022-07-31T14:36:43.938Z,27.33
2022-07-31T14:38:27.230Z,27.43
2022-07-31T14:39:59.914Z,27.35
2022-07-31T14:41:32.432Z,27.25
2022-07-31T14:43:04.959Z,27.21
2022-07-31T14:44:38.356Z,27.21
2022-07-31T14:46:10.603Z,27.21
2022-07-31T14:47:45.245Z,27.12
2022-07-31T14:49:17.436Z,27.05
2022-07-31T14:50:49.652Z,26.96
2022-07-31T14:52:21.795Z,26.88
2022-07-31T14:53:54.301Z,26.87
2022-07-31T14:55:29.118Z,26.87
2022-07-31T14:57:02.540Z,26.88
2022-07-31T14:58:58.568Z,26.87
2022-07-31T15:00:27.192Z,26.82
2022-07-31T15:01:59.452Z,26.82
2022-07-31T15:03:31.628Z,26.82
2022-07-31T15:06:41.099Z,26.87
2022-07-31T15:07:13.172Z,26.98
2022-07-31T15:08:48.669Z,27.05
2022-07-31T15:10:20.894Z,27.13
2022-07-31T15:11:58.340Z,27.10
2022-07-31T15:13:38.620Z,27.17
2022-07-31T15:15:11.323Z,27.21
2022-07-31T15:16:43.578Z,27.30
2022-07-31T15:18:25.763Z,27.25
2022-07-31T15:19:58.501Z,27.23
2022-07-31T15:21:30.712Z,27.25
2022-07-31T15:23:03.430Z,27.28
2022-07-31T15:24:43.708Z,27.30
2022-07-31T15:26:21.980Z,27.25
2022-07-31T15:27:54.334Z,27.21
2022-07-31T15:29:26.511Z,27.24
2022-07-31T15:31:18.893Z,27.27
2022-07-31T15:32:54.294Z,27.33
2022-07-31T15:34:26.436Z,27.29
2022-07-31T15:35:58.690Z,27.27
2022-07-31T15:37:33.680Z,27.16
2022-07-31T15:39:06.191Z,27.05
2022-07-31T15:40:38.367Z,26.96
2022-07-31T15:42:15.118Z,26.91
2022-07-31T15:43:47.976Z,26.86
2022-07-31T15:45:21.208Z,26.82
2022-07-31T15:46:53.447Z,26.80
2022-07-31T15:48:26.661Z,26.78
2022-07-31T15:49:58.845Z,26.81
2022-07-31T15:51:31.360Z,26.70
2022-07-31T15:53:03.554Z,26.65
2022-07-31T15:54:35.701Z,26.61
2022-07-31T15:56:07.890Z,26.65
2022-07-31T15:57:40.528Z,26.69
2022-07-31T15:59:12.778Z,26.71
2022-07-31T16:00:45.011Z,26.75
2022-07-31T16:02:17.299Z,26.75
2022-07-31T16:03:50.398Z,26.66
2022-07-31T16:05:36.138Z,26.63
2022-07-31T16:08:29.415Z,26.64
2022-07-31T16:09:03.412Z,26.65
2022-07-31T16:10:35.731Z,26.64
2022-07-31T16:12:07.988Z,26.65
2022-07-31T16:13:40.180Z,26.66
2022-07-31T16:15:13.417Z,26.67
2022-07-31T16:16:46.021Z,26.68
2022-07-31T16:18:21.460Z,26.63
2022-07-31T16:19:53.736Z,26.61
2022-07-31T16:21:26.287Z,26.57
2022-07-31T16:23:01.265Z,26.55
2022-07-31T16:24:33.668Z,26.51
2022-07-31T16:26:05.959Z,26.52
2022-07-31T16:27:38.961Z,26.57
2022-07-31T16:29:17.133Z,26.55
2022-07-31T16:30:52.402Z,26.55
2022-07-31T16:32:24.644Z,26.51
2022-07-31T16:33:57.142Z,26.48
2022-07-31T16:35:29.625Z,26.46
2022-07-31T16:37:01.993Z,26.45
2022-07-31T16:38:34.936Z,26.41
2022-07-31T16:40:08.093Z,26.40
2022-07-31T16:42:00.283Z,26.36
2022-07-31T16:43:49.303Z,26.34
2022-07-31T16:45:24.324Z,26.38
2022-07-31T16:46:56.485Z,26.37
2022-07-31T16:48:30.521Z,26.35
2022-07-31T16:50:03.264Z,26.35
2022-07-31T16:51:35.927Z,26.32
2022-07-31T16:53:08.037Z,26.30
2022-07-31T16:54:41.230Z,26.27
2022-07-31T16:56:14.063Z,26.21
2022-07-31T16:57:46.596Z,26.16
2022-07-31T16:59:18.922Z,26.14
2022-07-31T17:00:51.150Z,26.11
2022-07-31T17:02:23.567Z,26.09
2022-07-31T17:04:01.489Z,26.06
2022-07-31T17:05:35.181Z,26.01
2022-07-31T17:07:07.852Z,25.97
2022-07-31T17:08:40.302Z,25.95
2022-07-31T17:10:12.860Z,25.90
2022-07-31T17:11:49.110Z,25.92
2022-07-31T17:13:21.321Z,25.89
2022-07-31T17:14:54.214Z,25.86
2022-07-31T17:16:26.716Z,25.84
2022-07-31T17:17:58.847Z,25.80
2022-07-31T17:19:41.995Z,25.76
2022-07-31T17:21:18.371Z,25.71
2022-07-31T17:22:55.602Z,25.63
2022-07-31T17:24:27.791Z,25.56
2022-07-31T17:26:02.839Z,25.48
2022-07-31T17:27:36.017Z,25.41
2022-07-31T17:29:08.649Z,25.38
2022-07-31T17:30:41.034Z,25.30
2022-07-31T17:32:13.463Z,25.26
2022-07-31T17:33:54.558Z,25.19
2022-07-31T17:35:34.409Z,25.10
2022-07-31T17:37:07.668Z,25.04
2022-07-31T17:38:40.191Z,25.00
2022-07-31T17:40:33.879Z,24.93
2022-07-31T17:42:09.394Z,24.84
2022-07-31T17:43:50.002Z,24.78
2022-07-31T17:45:26.689Z,24.72
2022-07-31T17:47:20.314Z,24.62
2022-07-31T17:48:52.525Z,24.56
2022-07-31T17:50:24.774Z,24.49
2022-07-31T17:51:58.897Z,24.41
2022-07-31T17:53:55.353Z,24.33
2022-07-31T17:55:24.887Z,24.23
2022-07-31T17:56:57.146Z,24.20
2022-07-31T17:58:31.249Z,24.15
2022-07-31T18:00:05.552Z,24.11
2022-07-31T18:01:37.846Z,24.08
2022-07-31T18:03:09.992Z,24.06
2022-07-31T18:04:42.254Z,24.03
2022-07-31T18:06:14.755Z,23.99
2022-07-31T18:07:51.714Z,23.92
2022-07-31T18:09:24.520Z,23.86
2022-07-31T18:10:56.786Z,23.79
2022-07-31T18:12:29.314Z,23.70
2022-07-31T18:14:24.246Z,23.64
2022-07-31T18:15:56.970Z,23.56
2022-07-31T18:17:31.438Z,23.48
2022-07-31T18:19:03.614Z,23.38
2022-07-31T18:20:35.849Z,23.29
2022-07-31T18:22:08.195Z,23.17
2022-07-31T18:23:43.510Z,23.03
2022-07-31T18:25:19.595Z,22.88
2022-07-31T18:26:53.928Z,22.75
2022-07-31T18:28:26.426Z,22.61
2022-07-31T18:29:58.945Z,22.49
2022-07-31T18:31:34.708Z,22.35
2022-07-31T18:33:07.932Z,22.22
2022-07-31T18:34:40.108Z,22.09
2022-07-31T18:36:12.722Z,21.97
2022-07-31T18:37:45.602Z,21.86
2022-07-31T18:39:17.836Z,21.73
2022-07-31T18:40:49.991Z,21.61
2022-07-31T18:42:24.174Z,21.51
2022-07-31T18:43:56.350Z,21.39
2022-07-31T18:45:29.058Z,21.31
2022-07-31T18:47:01.294Z,21.21
2022-07-31T18:48:33.933Z,21.13
2022-07-31T18:51:00.417Z,21.04
2022-07-31T18:51:58.566Z,20.98
2022-07-31T18:53:31.186Z,20.94
2022-07-31T18:55:03.809Z,20.90
2022-07-31T18:56:35.955Z,20.86
2022-07-31T18:58:11.405Z,20.83
2022-07-31T18:59:43.576Z,20.80
2022-07-31T19:01:19.274Z,20.73
2022-07-31T19:02:51.474Z,20.68
2022-07-31T19:04:23.713Z,20.65
2022-07-31T19:05:55.914Z,20.64
2022-07-31T19:07:35.905Z,20.61
2022-07-31T19:09:08.285Z,20.57
2022-07-31T19:10:40.583Z,20.52
2022-07-31T19:12:13.878Z,20.47
2022-07-31T19:13:46.959Z,20.44
2022-07-31T19:15:19.116Z,20.42
2022-07-31T19:16:51.308Z,20.41
2022-07-31T19:18:24.470Z,20.42
2022-07-31T19:20:02.690Z,20.45
2022-07-31T19:21:41.438Z,20.48
2022-07-31T19:23:14.916Z,20.47
2022-07-31T19:24:48.219Z,20.40
2022-07-31T19:26:20.987Z,20.34
2022-07-31T19:27:53.226Z,20.28
2022-07-31T19:29:25.645Z,20.21
2022-07-31T19:30:58.047Z,20.14
2022-07-31T19:32:32.514Z,20.07
2022-07-31T19:34:04.760Z,20.00
2022-07-31T19:35:55.486Z,19.93
2022-07-31T19:37:33.271Z,19.86
2022-07-31T19:39:05.509Z,19.80
2022-07-31T19:40:37.784Z,19.80
2022-07-31T19:42:11.376Z,19.90
2022-07-31T19:43:45.002Z,20.00
2022-07-31T19:45:17.443Z,20.12
2022-07-31T19:46:49.722Z,20.20
2022-07-31T19:48:21.865Z,20.24
2022-07-31T19:49:54.484Z,20.29
2022-07-31T19:51:26.728Z,20.32
2022-07-31T19:52:58.839Z,20.32
2022-07-31T19:54:31.079Z,20.28
2022-07-31T19:56:06.277Z,20.26
2022-07-31T19:57:38.686Z,20.23
2022-07-31T19:59:10.910Z,20.18
2022-07-31T20:00:43.155Z,20.10
2022-07-31T20:02:17.101Z,20.01
2022-07-31T20:03:53.273Z,19.91
2022-07-31T20:05:25.545Z,19.85
2022-07-31T20:06:57.753Z,19.77
2022-07-31T20:08:33.318Z,19.71
2022-07-31T20:10:06.953Z,19.66
2022-07-31T20:11:40.870Z,19.60
2022-07-31T20:13:13.099Z,19.54
2022-07-31T20:14:45.587Z,19.48
2022-07-31T20:16:17.943Z,19.43
2022-07-31T20:17:50.154Z,19.39
2022-07-31T20:19:24.912Z,19.37
2022-07-31T20:20:57.419Z,19.34
2022-07-31T20:22:29.717Z,19.30
2022-07-31T20:24:03.007Z,19.29
2022-07-31T20:25:35.278Z,19.25
2022-07-31T20:27:07.733Z,19.20
2022-07-31T20:28:44.160Z,19.18
2022-07-31T20:30:21.832Z,19.12
2022-07-31T20:31:54.106Z,19.06
2022-07-31T20:33:26.626Z,19.00
2022-07-31T20:34:58.838Z,18.97
2022-07-31T20:36:31.138Z,18.92
2022-07-31T20:38:03.443Z,18.89
2022-07-31T20:39:35.865Z,18.87
2022-07-31T20:41:08.089Z,18.87
2022-07-31T20:42:40.349Z,18.86
2022-07-31T20:44:12.497Z,18.88
2022-07-31T20:45:46.810Z,18.88
2022-07-31T20:47:22.868Z,18.86